Time;durP1;ratioP1;P1;durP2;ratioP2;P2;SDS_P1;SDS_P2;PMS_P1;PMS_P2;Temp;Humidity;BMP_temperature;BMP_pressure;BME280_temperature;BME280_humidity;BME280_pressure;Samples;Min_cycle;Max_cycle;Signal;HPM_P1;HPM_P2
2023/09/01 00:00:05;;;;;;;4.53;3.00;;;;;;;;;;5047863;28;20279;-76
2023/09/01 00:02:33;;;;;;;3.17;2.60;;;;;;;;;;5053543;28;20173;-77
2023/09/01 00:05:10;;;;;;;3.77;2.60;;;;;;;;;;5056135;28;20241;-76
2023/09/01 00:07:36;;;;;;;4.60;2.90;;;;;;;;;;5054700;28;20617;-78
2023/09/01 00:10:07;;;;;;;3.73;2.80;;;;;;;;;;5056960;28;20207;-78
2023/09/01 00:12:34;;;;;;;3.97;2.87;;;;;;;;;;5049194;28;20192;-77
2023/09/01 00:15:00;;;;;;;2.77;2.50;;;;;;;;;;5052706;28;20239;-76
2023/09/01 00:17:26;;;;;;;4.87;2.70;;;;;;;;;;5056485;28;20177;-77
2023/09/01 00:19:52;;;;;;;3.83;3.10;;;;;;;;;;5050112;28;20300;-76
2023/09/01 00:22:18;;;;;;;3.30;2.70;;;;;;;;;;5053925;28;20260;-77
2023/09/01 00:24:44;;;;;;;3.83;2.43;;;;;;;;;;5050952;28;20266;-76
2023/09/01 00:27:11;;;;;;;5.90;3.30;;;;;;;;;;5056040;28;20223;-78
2023/09/01 00:29:37;;;;;;;5.67;2.80;;;;;;;;;;5051624;28;20716;-77
2023/09/01 00:32:04;;;;;;;4.40;3.10;;;;;;;;;;5053478;28;20185;-76
2023/09/01 00:34:31;;;;;;;4.73;3.20;;;;;;;;;;5050814;28;20278;-76
2023/09/01 00:36:57;;;;;;;3.70;3.10;;;;;;;;;;5053643;28;20190;-78
2023/09/01 00:39:23;;;;;;;4.50;3.70;;;;;;;;;;5052646;28;20208;-78
2023/09/01 00:41:49;;;;;;;4.87;3.90;;;;;;;;;;5043281;28;20664;-77
2023/09/01 00:44:15;;;;;;;4.83;3.83;;;;;;;;;;5053205;28;20547;-77
2023/09/01 00:46:46;;;;;;;5.03;3.60;;;;;;;;;;5060070;28;20656;-76
2023/09/01 00:49:13;;;;;;;6.27;3.70;;;;;;;;;;5026572;28;20604;-76
2023/09/01 00:51:39;;;;;;;5.87;3.90;;;;;;;;;;5055988;28;20207;-76
2023/09/01 00:54:06;;;;;;;5.30;3.53;;;;;;;;;;5057906;28;20678;-78
2023/09/01 00:56:32;;;;;;;5.77;3.90;;;;;;;;;;5053397;28;20224;-78
2023/09/01 00:58:58;;;;;;;5.87;3.97;;;;;;;;;;5050374;28;20209;-76
2023/09/01 01:01:25;;;;;;;4.40;3.47;;;;;;;;;;5053810;28;20178;-76
2023/09/01 01:03:52;;;;;;;5.50;3.67;;;;;;;;;;5051716;28;20579;-76
2023/09/01 01:06:27;;;;;;;4.80;3.20;;;;;;;;;;5053138;28;20196;-78
2023/09/01 01:09:17;;;;;;;4.30;3.20;;;;;;;;;;5051665;28;20177;-76
2023/09/01 01:11:54;;;;;;;4.17;3.37;;;;;;;;;;5055931;28;20526;-76
2023/09/01 01:14:25;;;;;;;7.33;3.13;;;;;;;;;;5050299;28;20205;-77
2023/09/01 01:16:52;;;;;;;3.93;3.23;;;;;;;;;;5056485;28;20653;-77
2023/09/01 01:19:29;;;;;;;6.43;3.30;;;;;;;;;;5052976;28;20235;-76
2023/09/01 01:22:00;;;;;;;3.93;3.13;;;;;;;;;;5037488;28;20258;-77
2023/09/01 01:24:26;;;;;;;3.30;3.00;;;;;;;;;;5057119;28;20227;-77
2023/09/01 01:26:53;;;;;;;5.00;3.50;;;;;;;;;;5056184;28;20778;-78
2023/09/01 01:29:19;;;;;;;3.77;2.90;;;;;;;;;;5059321;28;20227;-77
2023/09/01 01:31:46;;;;;;;3.93;3.13;;;;;;;;;;5041943;28;20185;-77
2023/09/01 01:34:20;;;;;;;3.90;3.10;;;;;;;;;;5034196;28;20190;-77
2023/09/01 01:36:46;;;;;;;4.50;2.87;;;;;;;;;;5045970;28;20759;-77
2023/09/01 01:39:15;;;;;;;3.00;2.70;;;;;;;;;;5050919;28;20213;-76
2023/09/01 01:41:52;;;;;;;3.40;2.60;;;;;;;;;;5051554;28;20275;-77
2023/09/01 01:44:21;;;;;;;2.47;2.10;;;;;;;;;;5037326;28;20222;-76
2023/09/01 01:46:48;;;;;;;1.97;1.80;;;;;;;;;;5041060;28;20184;-76
2023/09/01 01:49:15;;;;;;;3.13;1.97;;;;;;;;;;5042398;28;20683;-76
2023/09/01 01:51:41;;;;;;;2.00;1.80;;;;;;;;;;5044905;28;20278;-76
2023/09/01 01:54:07;;;;;;;1.80;1.70;;;;;;;;;;5042812;28;20548;-77
2023/09/01 01:56:34;;;;;;;2.03;1.70;;;;;;;;;;5045140;28;20184;-76
2023/09/01 01:59:01;;;;;;;1.63;1.53;;;;;;;;;;5044865;28;20238;-77
2023/09/01 02:01:27;;;;;;;2.30;1.60;;;;;;;;;;5043879;28;20641;-77
2023/09/01 02:03:53;;;;;;;1.60;1.50;;;;;;;;;;5043685;28;20194;-76
2023/09/01 02:06:19;;;;;;;1.97;1.53;;;;;;;;;;5026795;28;20560;-77
2023/09/01 02:08:45;;;;;;;1.93;1.73;;;;;;;;;;5046245;28;20186;-76
2023/09/01 02:11:11;;;;;;;1.90;1.80;;;;;;;;;;5024446;28;20198;-76
2023/09/01 02:13:37;;;;;;;2.20;2.00;;;;;;;;;;5048737;28;20178;-76
2023/09/01 02:16:05;;;;;;;3.23;2.40;;;;;;;;;;5041496;28;20684;-76
2023/09/01 02:18:32;;;;;;;2.53;2.30;;;;;;;;;;5041992;28;20174;-77
2023/09/01 02:20:58;;;;;;;3.27;2.97;;;;;;;;;;5045312;28;20185;-76
2023/09/01 02:23:24;;;;;;;3.60;3.27;;;;;;;;;;5044407;28;20185;-76
2023/09/01 02:25:50;;;;;;;4.67;3.27;;;;;;;;;;5046106;28;20228;-77
2023/09/01 02:28:16;;;;;;;4.80;3.70;;;;;;;;;;5040721;28;20227;-77
2023/09/01 02:30:43;;;;;;;6.23;4.20;;;;;;;;;;5046297;28;20178;-77
2023/09/01 02:33:09;;;;;;;7.47;4.33;;;;;;;;;;5051651;28;20645;-76
2023/09/01 02:35:44;;;;;;;5.37;4.10;;;;;;;;;;5046199;28;20256;-77
2023/09/01 02:38:11;;;;;;;5.30;4.27;;;;;;;;;;5043389;28;20194;-76
2023/09/01 02:40:37;;;;;;;6.70;5.20;;;;;;;;;;5038994;28;20265;-76
2023/09/01 02:43:03;;;;;;;6.20;5.10;;;;;;;;;;5052215;28;20180;-77
2023/09/01 02:45:29;;;;;;;6.57;5.20;;;;;;;;;;5056935;28;20591;-79
2023/09/01 02:47:56;;;;;;;6.13;4.90;;;;;;;;;;5057094;28;20615;-77
2023/09/01 02:50:23;;;;;;;7.50;5.30;;;;;;;;;;5054413;28;20555;-77
2023/09/01 02:52:49;;;;;;;7.43;5.93;;;;;;;;;;5055937;28;20680;-76
2023/09/01 02:55:17;;;;;;;6.83;5.97;;;;;;;;;;5054908;28;20577;-78
2023/09/01 02:57:47;;;;;;;7.60;5.80;;;;;;;;;;5027862;28;20589;-77
2023/09/01 03:00:21;;;;;;;7.70;5.60;;;;;;;;;;5047578;28;20296;-76
2023/09/01 03:02:48;;;;;;;8.57;5.30;;;;;;;;;;5049830;28;20184;-79
2023/09/01 03:05:14;;;;;;;7.23;5.57;;;;;;;;;;5054289;28;20637;-76
2023/09/01 03:07:41;;;;;;;6.83;5.30;;;;;;;;;;5055657;28;20177;-76
2023/09/01 03:10:08;;;;;;;7.63;4.80;;;;;;;;;;5052820;28;20376;-76
2023/09/01 03:12:38;;;;;;;7.43;5.23;;;;;;;;;;5037944;28;20948;-78
2023/09/01 03:15:05;;;;;;;7.07;5.33;;;;;;;;;;5036209;28;20273;-77
2023/09/01 03:17:32;;;;;;;7.00;4.83;;;;;;;;;;5055225;28;20181;-78
2023/09/01 03:19:58;;;;;;;7.57;5.10;;;;;;;;;;5054237;28;20869;-78
2023/09/01 03:22:24;;;;;;;7.37;4.77;;;;;;;;;;5059070;28;20821;-78
2023/09/01 03:24:53;;;;;;;9.00;4.97;;;;;;;;;;5059165;28;20688;-77
2023/09/01 03:27:21;;;;;;;6.53;5.10;;;;;;;;;;5053463;28;20186;-78
2023/09/01 03:29:51;;;;;;;10.30;5.50;;;;;;;;;;5052479;28;20260;-76
2023/09/01 03:32:18;;;;;;;6.83;4.70;;;;;;;;;;5055650;28;20194;-77
2023/09/01 03:34:44;;;;;;;8.70;4.50;;;;;;;;;;5043861;22;20206;-76
2023/09/01 03:37:12;;;;;;;5.97;4.67;;;;;;;;;;5050509;28;20266;-76
2023/09/01 03:39:38;;;;;;;6.67;4.53;;;;;;;;;;5049461;28;20801;-76
2023/09/01 03:42:04;;;;;;;7.93;4.73;;;;;;;;;;5021583;28;20205;-76
2023/09/01 03:44:30;;;;;;;5.57;4.60;;;;;;;;;;5053190;28;20185;-77
2023/09/01 03:46:58;;;;;;;5.53;4.43;;;;;;;;;;5048433;28;20806;-77
2023/09/01 03:49:26;;;;;;;7.97;4.73;;;;;;;;;;5022298;28;20198;-76
2023/09/01 03:51:52;;;;;;;5.43;4.60;;;;;;;;;;5054518;28;20887;-76
2023/09/01 03:54:19;;;;;;;7.20;4.90;;;;;;;;;;5051920;28;20182;-77
2023/09/01 03:56:45;;;;;;;6.10;4.70;;;;;;;;;;5049388;28;20287;-77
2023/09/01 03:59:11;;;;;;;7.07;4.67;;;;;;;;;;5066759;28;20256;-77
2023/09/01 04:01:37;;;;;;;6.97;4.53;;;;;;;;;;5032615;28;20202;-77
2023/09/01 04:04:06;;;;;;;5.07;4.30;;;;;;;;;;5069834;28;20186;-77
2023/09/01 04:06:33;;;;;;;8.37;5.30;;;;;;;;;;5050032;28;20203;-77
2023/09/01 04:08:59;;;;;;;5.77;4.77;;;;;;;;;;5051299;28;20614;-77
2023/09/01 04:11:25;;;;;;;5.80;5.03;;;;;;;;;;5047674;28;20268;-76
2023/09/01 04:13:52;;;;;;;6.73;5.30;;;;;;;;;;5052927;28;20222;-76
2023/09/01 04:16:18;;;;;;;5.53;4.53;;;;;;;;;;5048903;28;20212;-77
2023/09/01 04:18:44;;;;;;;8.53;4.87;;;;;;;;;;5051486;28;20546;-76
2023/09/01 04:21:10;;;;;;;5.83;4.50;;;;;;;;;;5053469;28;20181;-76
2023/09/01 04:23:39;;;;;;;5.10;4.30;;;;;;;;;;5052002;28;20292;-77
2023/09/01 04:26:05;;;;;;;6.03;4.70;;;;;;;;;;5053207;28;20210;-77
2023/09/01 04:28:32;;;;;;;5.87;4.40;;;;;;;;;;5053871;28;20719;-76
2023/09/01 04:30:59;;;;;;;6.90;4.57;;;;;;;;;;5056119;28;20252;-76
2023/09/01 04:33:26;;;;;;;7.73;4.57;;;;;;;;;;5035083;28;20229;-77
2023/09/01 04:36:10;;;;;;;5.83;4.40;;;;;;;;;;5052819;28;20845;-77
2023/09/01 04:38:36;;;;;;;5.93;4.43;;;;;;;;;;5052427;28;20189;-77
2023/09/01 04:41:02;;;;;;;8.17;4.10;;;;;;;;;;5054729;28;20185;-77
2023/09/01 04:43:32;;;;;;;4.63;4.00;;;;;;;;;;5059386;28;20548;-77
2023/09/01 04:45:59;;;;;;;8.33;4.20;;;;;;;;;;5054443;28;20459;-77
2023/09/01 04:48:27;;;;;;;7.63;4.30;;;;;;;;;;5053957;28;20186;-77
2023/09/01 04:50:53;;;;;;;6.27;4.50;;;;;;;;;;5056172;28;20609;-77
2023/09/01 04:53:20;;;;;;;6.73;4.20;;;;;;;;;;5053432;28;20726;-77
2023/09/01 04:55:49;;;;;;;7.13;4.50;;;;;;;;;;5054976;28;20289;-77
2023/09/01 04:58:16;;;;;;;4.80;4.00;;;;;;;;;;5057297;28;20633;-77
2023/09/01 05:00:42;;;;;;;6.50;4.20;;;;;;;;;;5034249;28;20215;-77
2023/09/01 05:03:09;;;;;;;5.17;4.50;;;;;;;;;;5051310;28;20777;-77
2023/09/01 05:05:35;;;;;;;8.53;4.53;;;;;;;;;;5051517;28;20206;-77
2023/09/01 05:08:02;;;;;;;6.73;4.83;;;;;;;;;;5052104;28;20188;-77
2023/09/01 05:10:28;;;;;;;4.73;4.10;;;;;;;;;;5056664;28;20188;-77
2023/09/01 05:12:54;;;;;;;6.60;4.27;;;;;;;;;;5056626;28;20584;-77
2023/09/01 05:15:20;;;;;;;4.53;3.97;;;;;;;;;;5057506;28;20296;-77
2023/09/01 05:17:47;;;;;;;4.37;3.87;;;;;;;;;;5057046;28;20192;-77
2023/09/01 05:20:13;;;;;;;5.53;4.20;;;;;;;;;;5060173;28;20217;-77
2023/09/01 05:22:39;;;;;;;6.07;4.00;;;;;;;;;;5052617;28;20273;-77
2023/09/01 05:25:06;;;;;;;5.40;4.10;;;;;;;;;;5053851;28;20229;-77
2023/09/01 05:27:32;;;;;;;4.73;3.67;;;;;;;;;;5050805;28;20182;-77
2023/09/01 05:29:58;;;;;;;5.23;3.90;;;;;;;;;;5053257;28;20216;-77
2023/09/01 05:32:24;;;;;;;5.60;4.63;;;;;;;;;;5055406;28;20247;-77
2023/09/01 05:34:50;;;;;;;6.00;3.87;;;;;;;;;;5054908;28;20298;-77
2023/09/01 05:37:17;;;;;;;7.00;4.27;;;;;;;;;;5063672;28;20190;-77
2023/09/01 05:39:44;;;;;;;7.33;4.10;;;;;;;;;;5059306;28;20201;-77
2023/09/01 05:42:11;;;;;;;5.47;4.10;;;;;;;;;;5053460;28;20182;-77
2023/09/01 05:44:37;;;;;;;7.07;4.60;;;;;;;;;;5054532;28;20211;-80
2023/09/01 05:47:04;;;;;;;6.30;4.13;;;;;;;;;;5039105;28;20217;-79
2023/09/01 05:49:33;;;;;;;5.90;3.97;;;;;;;;;;5038814;28;20728;-80
2023/09/01 05:52:00;;;;;;;6.93;3.80;;;;;;;;;;5053982;28;20185;-78
2023/09/01 05:54:26;;;;;;;6.33;4.20;;;;;;;;;;5054585;28;20209;-79
2023/09/01 05:56:53;;;;;;;6.23;3.67;;;;;;;;;;5058715;28;20687;-78
2023/09/01 05:59:19;;;;;;;6.37;4.07;;;;;;;;;;5063972;28;20277;-80
2023/09/01 06:01:46;;;;;;;4.97;3.40;;;;;;;;;;5067723;28;20178;-80
2023/09/01 06:04:13;;;;;;;5.70;4.07;;;;;;;;;;5058843;28;20276;-80
2023/09/01 06:06:40;;;;;;;5.87;3.40;;;;;;;;;;5059416;28;20217;-80
2023/09/01 06:09:09;;;;;;;6.30;3.77;;;;;;;;;;5032325;28;20268;-80
2023/09/01 06:11:37;;;;;;;3.70;3.33;;;;;;;;;;5027381;28;20189;-79
2023/09/01 06:14:03;;;;;;;6.13;3.40;;;;;;;;;;5055869;28;20194;-79
2023/09/01 06:16:30;;;;;;;4.77;3.70;;;;;;;;;;5037409;28;20214;-80
2023/09/01 06:18:58;;;;;;;5.20;3.40;;;;;;;;;;5055059;28;20622;-79
2023/09/01 06:21:24;;;;;;;3.60;3.00;;;;;;;;;;5055362;28;20178;-80
2023/09/01 06:23:50;;;;;;;4.60;3.53;;;;;;;;;;5053879;28;20190;-80
2023/09/01 06:26:20;;;;;;;4.13;3.30;;;;;;;;;;5052229;28;20205;-76
2023/09/01 06:28:47;;;;;;;3.97;3.13;;;;;;;;;;5048781;28;20653;-75
2023/09/01 06:31:16;;;;;;;4.37;3.47;;;;;;;;;;5046100;28;20181;-77
2023/09/01 06:33:43;;;;;;;4.93;3.53;;;;;;;;;;5054937;28;20170;-75
2023/09/01 06:36:10;;;;;;;7.73;3.50;;;;;;;;;;5054006;28;20217;-77
2023/09/01 06:38:37;;;;;;;4.93;3.27;;;;;;;;;;5054953;28;20174;-80
2023/09/01 06:41:03;;;;;;;6.17;3.30;;;;;;;;;;5057036;28;20259;-77
2023/09/01 06:43:30;;;;;;;4.73;3.50;;;;;;;;;;5053613;28;20215;-77
2023/09/01 06:45:56;;;;;;;4.03;3.53;;;;;;;;;;5056218;28;20729;-76
2023/09/01 06:48:23;;;;;;;3.63;3.30;;;;;;;;;;5057583;28;20550;-78
2023/09/01 06:50:49;;;;;;;5.07;3.70;;;;;;;;;;5054860;28;20185;-77
2023/09/01 06:53:15;;;;;;;5.23;3.43;;;;;;;;;;5060661;28;20209;-78
2023/09/01 06:55:41;;;;;;;5.60;3.67;;;;;;;;;;5055459;28;20293;-77
2023/09/01 06:58:08;;;;;;;6.97;3.33;;;;;;;;;;5051508;28;20189;-78
2023/09/01 07:00:34;;;;;;;4.50;3.30;;;;;;;;;;5060571;28;20307;-77
2023/09/01 07:03:00;;;;;;;5.73;3.60;;;;;;;;;;5055176;28;20444;-76
2023/09/01 07:05:26;;;;;;;3.50;3.20;;;;;;;;;;5050803;28;20193;-76
2023/09/01 07:07:52;;;;;;;5.47;3.50;;;;;;;;;;5052507;28;20227;-76
2023/09/01 07:10:19;;;;;;;4.63;3.60;;;;;;;;;;5059818;28;20186;-76
2023/09/01 07:12:45;;;;;;;6.93;3.50;;;;;;;;;;5050211;28;20178;-76
2023/09/01 07:15:11;;;;;;;5.27;3.50;;;;;;;;;;5052930;28;20288;-76
2023/09/01 07:17:37;;;;;;;5.27;3.60;;;;;;;;;;5051225;28;20559;-78
2023/09/01 07:20:04;;;;;;;5.63;3.30;;;;;;;;;;5053324;28;20209;-77
2023/09/01 07:22:30;;;;;;;5.67;4.00;;;;;;;;;;5053026;28;20269;-77
2023/09/01 07:24:56;;;;;;;4.83;3.40;;;;;;;;;;5054562;28;20240;-77
2023/09/01 07:27:22;;;;;;;5.47;3.57;;;;;;;;;;5052524;28;20596;-77
2023/09/01 07:29:49;;;;;;;4.47;3.43;;;;;;;;;;5056905;28;20185;-77
2023/09/01 07:32:16;;;;;;;4.90;3.57;;;;;;;;;;5052821;28;20184;-77
2023/09/01 07:34:42;;;;;;;3.97;3.20;;;;;;;;;;5053113;28;20186;-77
2023/09/01 07:37:08;;;;;;;5.17;3.20;;;;;;;;;;5050753;28;20722;-76
2023/09/01 07:39:35;;;;;;;4.50;3.50;;;;;;;;;;5054982;28;20212;-77
2023/09/01 07:42:04;;;;;;;6.33;3.57;;;;;;;;;;5051212;28;20189;-76
2023/09/01 07:44:30;;;;;;;4.67;3.50;;;;;;;;;;5051156;28;20602;-76
2023/09/01 07:46:56;;;;;;;4.77;3.70;;;;;;;;;;5054261;28;20263;-78
2023/09/01 07:49:22;;;;;;;4.00;3.37;;;;;;;;;;5050517;28;20688;-76
2023/09/01 07:51:49;;;;;;;3.50;3.20;;;;;;;;;;5058995;28;20178;-78
2023/09/01 07:54:16;;;;;;;3.20;2.90;;;;;;;;;;5052577;28;20667;-77
2023/09/01 07:56:42;;;;;;;3.40;3.10;;;;;;;;;;5050918;28;20197;-75
2023/09/01 07:59:08;;;;;;;4.23;3.00;;;;;;;;;;5034823;28;20224;-77
2023/09/01 08:01:34;;;;;;;3.87;2.80;;;;;;;;;;5051102;28;20186;-77
2023/09/01 08:04:01;;;;;;;4.23;3.00;;;;;;;;;;5053180;28;20181;-77
2023/09/01 08:06:29;;;;;;;4.93;2.83;;;;;;;;;;5052873;28;20240;-77
2023/09/01 08:08:56;;;;;;;4.93;3.00;;;;;;;;;;5055159;28;20184;-78
2023/09/01 08:11:22;;;;;;;4.27;2.93;;;;;;;;;;5052212;28;20200;-76
2023/09/01 08:13:48;;;;;;;4.07;2.43;;;;;;;;;;5051721;28;20182;-76
2023/09/01 08:16:16;;;;;;;3.30;2.50;;;;;;;;;;5052024;28;20209;-78
2023/09/01 08:18:42;;;;;;;6.63;2.83;;;;;;;;;;5051973;28;20282;-77
2023/09/01 08:21:08;;;;;;;5.20;3.20;;;;;;;;;;5052762;28;20218;-78
2023/09/01 08:23:34;;;;;;;3.73;2.97;;;;;;;;;;5048695;28;20178;-77
2023/09/01 08:26:05;;;;;;;4.43;2.90;;;;;;;;;;5048024;28;20209;-77
2023/09/01 08:28:31;;;;;;;3.93;2.90;;;;;;;;;;5051759;28;20665;-77
2023/09/01 08:31:04;;;;;;;4.83;3.13;;;;;;;;;;5046716;28;20196;-76
2023/09/01 08:33:30;;;;;;;9.97;3.20;;;;;;;;;;5053266;28;20555;-78
2023/09/01 08:35:56;;;;;;;5.83;3.00;;;;;;;;;;5047597;28;20235;-77
2023/09/01 08:38:22;;;;;;;3.53;2.73;;;;;;;;;;5050322;28;20178;-78
2023/09/01 08:40:49;;;;;;;3.23;2.60;;;;;;;;;;5054202;28;20209;-80
2023/09/01 08:43:16;;;;;;;5.07;2.80;;;;;;;;;;5051853;28;20266;-77
2023/09/01 08:45:42;;;;;;;4.67;3.00;;;;;;;;;;5052287;28;20217;-76
2023/09/01 08:48:08;;;;;;;7.10;2.73;;;;;;;;;;5051097;28;20186;-77
2023/09/01 08:50:36;;;;;;;4.07;2.43;;;;;;;;;;5034247;28;20194;-78
2023/09/01 08:53:03;;;;;;;7.53;2.60;;;;;;;;;;5058530;28;20181;-77
2023/09/01 08:55:29;;;;;;;3.80;2.30;;;;;;;;;;5048656;28;20766;-76
2023/09/01 08:57:56;;;;;;;3.00;2.37;;;;;;;;;;5056189;28;20173;-77
2023/09/01 09:00:22;;;;;;;3.37;2.10;;;;;;;;;;5050157;28;20576;-78
2023/09/01 09:02:48;;;;;;;4.33;2.10;;;;;;;;;;5055331;28;20174;-76
2023/09/01 09:05:15;;;;;;;2.90;2.20;;;;;;;;;;5048008;28;20197;-77
2023/09/01 09:07:42;;;;;;;3.53;2.23;;;;;;;;;;5059530;28;20526;-77
2023/09/01 09:10:09;;;;;;;3.57;2.10;;;;;;;;;;5055760;28;20260;-76
2023/09/01 09:12:35;;;;;;;3.23;2.00;;;;;;;;;;5051966;28;20193;-77
2023/09/01 09:15:03;;;;;;;2.43;1.90;;;;;;;;;;5054810;28;20228;-77
2023/09/01 09:17:44;;;;;;;3.93;2.30;;;;;;;;;;5051797;28;20192;-78
2023/09/01 09:20:14;;;;;;;2.43;1.73;;;;;;;;;;5052554;28;20220;-76
2023/09/01 09:22:49;;;;;;;3.60;1.90;;;;;;;;;;5064487;28;20256;-77
2023/09/01 09:25:26;;;;;;;2.23;2.03;;;;;;;;;;5052399;28;20258;-77
2023/09/01 09:27:53;;;;;;;3.67;2.20;;;;;;;;;;5054029;28;20173;-76
2023/09/01 09:30:19;;;;;;;3.30;2.07;;;;;;;;;;5054655;28;20182;-76
2023/09/01 09:32:45;;;;;;;2.53;2.30;;;;;;;;;;5057178;28;20186;-76
2023/09/01 09:35:19;;;;;;;4.17;2.40;;;;;;;;;;5061229;22;20222;31
2023/09/01 09:37:57;;;;;;;3.77;2.30;;;;;;;;;;5026888;28;20213;-80
2023/09/01 09:40:23;;;;;;;3.43;2.20;;;;;;;;;;5028669;28;20219;-78
2023/09/01 09:42:49;;;;;;;2.20;2.00;;;;;;;;;;5031928;28;20183;-78
2023/09/01 09:45:28;;;;;;;2.70;2.07;;;;;;;;;;5013852;28;20179;-78
2023/09/01 09:47:55;;;;;;;3.97;2.17;;;;;;;;;;5038455;28;20186;-79
2023/09/01 09:50:21;;;;;;;3.70;2.40;;;;;;;;;;4997580;28;20218;-78
2023/09/01 09:52:49;;;;;;;3.43;2.00;;;;;;;;;;5030609;28;20182;-78
2023/09/01 09:55:42;;;;;;;3.70;2.40;;;;;;;;;;5031380;28;20225;-78
2023/09/01 09:58:08;;;;;;;2.30;1.87;;;;;;;;;;5026985;28;20221;-78
2023/09/01 10:00:50;;;;;;;2.87;2.00;;;;;;;;;;5036764;28;20600;-78
2023/09/01 10:03:17;;;;;;;2.77;2.17;;;;;;;;;;5016457;28;20193;-78
2023/09/01 10:05:43;;;;;;;4.20;2.20;;;;;;;;;;5031254;28;20565;-78
2023/09/01 10:08:10;;;;;;;3.90;2.27;;;;;;;;;;5031331;28;20191;-77
2023/09/01 10:10:37;;;;;;;3.83;2.50;;;;;;;;;;5031297;28;20211;-78
2023/09/01 10:13:06;;;;;;;3.03;2.10;;;;;;;;;;5031271;28;20186;-78
2023/09/01 10:15:34;;;;;;;2.63;1.83;;;;;;;;;;5031017;28;20249;-78
2023/09/01 10:18:02;;;;;;;2.73;2.00;;;;;;;;;;5038257;28;20178;-78
2023/09/01 10:20:32;;;;;;;2.93;2.17;;;;;;;;;;5030853;28;20285;-78
2023/09/01 10:23:01;;;;;;;2.53;2.00;;;;;;;;;;5031438;28;20171;-78
2023/09/01 10:25:28;;;;;;;3.17;2.10;;;;;;;;;;4996800;28;20199;-78
2023/09/01 10:28:13;;;;;;;2.60;2.10;;;;;;;;;;4992089;28;20232;-78
2023/09/01 10:30:43;;;;;;;4.67;2.00;;;;;;;;;;5030672;28;20186;-77
2023/09/01 10:33:16;;;;;;;3.10;2.30;;;;;;;;;;5025822;28;20265;-77
2023/09/01 10:35:47;;;;;;;3.10;2.30;;;;;;;;;;5025607;28;20215;-78
2023/09/01 10:38:15;;;;;;;4.70;2.47;;;;;;;;;;5031211;28;20194;-77
2023/09/01 10:40:44;;;;;;;7.23;2.40;;;;;;;;;;5035731;28;20239;-78
2023/09/01 10:43:11;;;;;;;3.83;2.27;;;;;;;;;;5031152;28;20182;-78
2023/09/01 10:45:38;;;;;;;3.83;2.40;;;;;;;;;;5030818;28;20230;-78
2023/09/01 10:48:11;;;;;;;3.80;2.27;;;;;;;;;;5032572;28;20182;-78
2023/09/01 10:50:39;;;;;;;3.60;2.73;;;;;;;;;;5024708;28;20667;-78
2023/09/01 10:53:24;;;;;;;3.57;2.37;;;;;;;;;;5036348;28;20210;-78
2023/09/01 10:56:10;;;;;;;2.50;2.23;;;;;;;;;;5029092;28;20277;-79
2023/09/01 10:58:40;;;;;;;5.53;2.73;;;;;;;;;;5020420;28;20211;-78
2023/09/01 11:01:25;;;;;;;2.80;2.50;;;;;;;;;;5012362;28;20218;-80
2023/09/01 11:03:52;;;;;;;3.73;2.50;;;;;;;;;;5030505;28;20265;-79
2023/09/01 11:06:18;;;;;;;2.60;2.40;;;;;;;;;;5029095;28;20558;-78
2023/09/01 11:08:58;;;;;;;2.77;2.30;;;;;;;;;;5013206;28;20190;-78
2023/09/01 11:11:24;;;;;;;2.87;2.37;;;;;;;;;;5027075;28;20612;-78
2023/09/01 11:13:54;;;;;;;2.90;2.30;;;;;;;;;;5038737;28;20278;-78
2023/09/01 11:16:20;;;;;;;3.53;2.77;;;;;;;;;;5031356;28;20197;-78
2023/09/01 11:18:58;;;;;;;4.47;2.70;;;;;;;;;;5037190;28;20176;-79
2023/09/01 11:21:24;;;;;;;3.17;2.30;;;;;;;;;;5019427;28;20188;-78
2023/09/01 11:23:56;;;;;;;4.50;2.57;;;;;;;;;;5034544;28;20274;-78
2023/09/01 11:26:22;;;;;;;3.60;2.50;;;;;;;;;;5034138;28;20205;-77
2023/09/01 11:28:48;;;;;;;3.27;2.40;;;;;;;;;;5028052;28;20182;-77
2023/09/01 11:31:15;;;;;;;3.67;2.50;;;;;;;;;;5022329;28;20183;-77
2023/09/01 11:33:42;;;;;;;4.23;2.30;;;;;;;;;;5023838;28;21096;-78
2023/09/01 11:36:10;;;;;;;6.13;2.47;;;;;;;;;;5015609;28;20214;-78
2023/09/01 11:38:37;;;;;;;5.03;2.60;;;;;;;;;;5034540;28;20189;-78
2023/09/01 11:41:12;;;;;;;3.93;2.60;;;;;;;;;;5014507;28;20631;-77
2023/09/01 11:43:38;;;;;;;3.70;2.50;;;;;;;;;;5036479;28;20174;-78
2023/09/01 11:46:04;;;;;;;2.93;2.40;;;;;;;;;;5028080;28;20216;-77
2023/09/01 11:48:30;;;;;;;2.33;2.00;;;;;;;;;;5028830;28;20187;-77
2023/09/01 11:50:58;;;;;;;3.93;2.20;;;;;;;;;;5032985;28;20190;-77
2023/09/01 11:53:24;;;;;;;3.67;2.20;;;;;;;;;;5037745;28;20269;-77
2023/09/01 11:55:51;;;;;;;3.13;2.10;;;;;;;;;;5034865;28;20197;-79
2023/09/01 11:58:17;;;;;;;2.53;2.27;;;;;;;;;;5028835;28;20186;-78
2023/09/01 12:00:44;;;;;;;3.60;2.10;;;;;;;;;;5016098;28;20220;-78
2023/09/01 12:03:11;;;;;;;3.43;2.00;;;;;;;;;;5010781;28;20186;-78
2023/09/01 12:05:38;;;;;;;2.17;1.80;;;;;;;;;;5034217;28;20203;-77
2023/09/01 12:08:05;;;;;;;2.40;1.80;;;;;;;;;;5016694;28;20656;-78
2023/09/01 12:10:31;;;;;;;2.63;1.70;;;;;;;;;;5027767;28;20186;-78
2023/09/01 12:13:04;;;;;;;2.40;1.63;;;;;;;;;;5027839;28;20228;-78
2023/09/01 12:15:30;;;;;;;2.00;1.73;;;;;;;;;;5033842;28;20261;-78
2023/09/01 12:17:56;;;;;;;1.70;1.50;;;;;;;;;;5033449;28;20256;-77
2023/09/01 12:20:22;;;;;;;1.50;1.40;;;;;;;;;;5013906;28;20205;-77
2023/09/01 12:22:49;;;;;;;2.90;1.73;;;;;;;;;;5024853;28;20269;-77
2023/09/01 12:25:15;;;;;;;2.13;1.60;;;;;;;;;;5027124;28;20253;-78
2023/09/01 12:27:41;;;;;;;2.60;1.60;;;;;;;;;;5038544;28;20185;-78
2023/09/01 12:30:07;;;;;;;1.60;1.50;;;;;;;;;;5040092;28;20251;-78
2023/09/01 12:32:33;;;;;;;1.23;1.13;;;;;;;;;;5033406;28;20236;-79
2023/09/01 12:34:59;;;;;;;1.50;1.40;;;;;;;;;;5039670;28;20190;-78
2023/09/01 12:37:25;;;;;;;1.30;1.20;;;;;;;;;;5028990;28;20214;-78
2023/09/01 12:39:52;;;;;;;1.73;1.20;;;;;;;;;;5034330;28;20204;-78
2023/09/01 12:42:18;;;;;;;2.60;1.20;;;;;;;;;;5032047;28;20193;-78
2023/09/01 12:44:44;;;;;;;1.70;1.30;;;;;;;;;;5038006;28;20260;-78
2023/09/01 12:47:10;;;;;;;3.50;1.30;;;;;;;;;;5043235;28;20677;-78
2023/09/01 12:49:36;;;;;;;1.67;1.10;;;;;;;;;;5035826;28;20204;-77
2023/09/01 12:52:03;;;;;;;1.40;1.20;;;;;;;;;;5046787;28;20182;-78
2023/09/01 12:54:29;;;;;;;2.83;1.60;;;;;;;;;;5029488;28;20298;-78
2023/09/01 12:56:55;;;;;;;2.13;1.50;;;;;;;;;;5037069;28;20235;-77
2023/09/01 12:59:21;;;;;;;2.17;1.40;;;;;;;;;;5033152;28;20206;-77
2023/09/01 13:01:47;;;;;;;2.23;1.40;;;;;;;;;;5013339;28;20186;-77
2023/09/01 13:04:13;;;;;;;1.50;1.40;;;;;;;;;;5030114;28;20562;-75
2023/09/01 13:06:39;;;;;;;1.20;1.10;;;;;;;;;;5046078;28;20576;-80
2023/09/01 13:09:07;;;;;;;3.47;1.27;;;;;;;;;;5031695;28;20185;-77
2023/09/01 13:11:33;;;;;;;3.53;1.10;;;;;;;;;;5030626;28;20254;-80
2023/09/01 13:13:59;;;;;;;1.80;1.20;;;;;;;;;;5029220;28;20272;-78
2023/09/01 13:16:29;;;;;;;1.50;1.20;;;;;;;;;;5032522;28;20231;-78
2023/09/01 13:18:56;;;;;;;1.30;1.20;;;;;;;;;;5031438;28;20238;-78
2023/09/01 13:21:22;;;;;;;1.53;1.10;;;;;;;;;;5036025;28;20626;-78
2023/09/01 13:23:49;;;;;;;3.10;1.50;;;;;;;;;;5031251;28;20563;-78
2023/09/01 13:26:15;;;;;;;2.10;1.40;;;;;;;;;;5018998;28;20211;-78
2023/09/01 13:28:41;;;;;;;1.70;1.30;;;;;;;;;;5015949;28;20269;-78
2023/09/01 13:31:08;;;;;;;1.33;0.97;;;;;;;;;;5044492;28;20194;-78
2023/09/01 13:33:39;;;;;;;1.63;1.10;;;;;;;;;;5045802;28;20220;-78
2023/09/01 13:36:05;;;;;;;1.73;1.20;;;;;;;;;;5036192;28;20257;-78
2023/09/01 13:38:31;;;;;;;2.20;1.20;;;;;;;;;;5013457;28;20208;-79
2023/09/01 13:40:57;;;;;;;2.50;1.00;;;;;;;;;;5030278;28;20213;-80
2023/09/01 13:43:23;;;;;;;1.20;1.00;;;;;;;;;;5012541;28;20559;-78
2023/09/01 13:45:49;;;;;;;1.50;1.10;;;;;;;;;;5041803;28;20245;-79
2023/09/01 13:48:16;;;;;;;1.63;0.90;;;;;;;;;;5036302;28;20184;-78
2023/09/01 13:50:42;;;;;;;1.63;1.10;;;;;;;;;;5035084;28;20192;-78
2023/09/01 13:53:08;;;;;;;1.33;1.10;;;;;;;;;;5041746;28;20210;-78
2023/09/01 13:55:34;;;;;;;1.33;1.00;;;;;;;;;;5030949;28;20208;-78
2023/09/01 13:58:00;;;;;;;1.37;1.00;;;;;;;;;;5029067;28;20191;-79
2023/09/01 14:00:26;;;;;;;1.83;1.20;;;;;;;;;;5029369;28;20190;-78
2023/09/01 14:02:53;;;;;;;3.27;1.20;;;;;;;;;;5029970;28;20187;-78
2023/09/01 14:05:19;;;;;;;1.10;1.00;;;;;;;;;;5012627;28;20181;-78
2023/09/01 14:07:45;;;;;;;1.40;1.10;;;;;;;;;;5029200;28;20188;-78
2023/09/01 14:10:11;;;;;;;1.73;1.00;;;;;;;;;;5011211;28;20278;-78
2023/09/01 14:12:37;;;;;;;3.40;1.20;;;;;;;;;;5030066;28;20329;-78
2023/09/01 14:15:04;;;;;;;1.10;0.90;;;;;;;;;;5029790;28;20798;-78
2023/09/01 14:17:30;;;;;;;3.23;1.17;;;;;;;;;;5027354;28;20681;-78
2023/09/01 14:19:56;;;;;;;1.93;1.10;;;;;;;;;;5029249;28;20194;-79
2023/09/01 14:22:22;;;;;;;1.40;1.03;;;;;;;;;;5031281;28;20185;-78
2023/09/01 14:24:48;;;;;;;1.17;0.90;;;;;;;;;;5030080;28;20238;-78
2023/09/01 14:27:14;;;;;;;1.60;0.97;;;;;;;;;;5011214;28;20253;-78
2023/09/01 14:29:41;;;;;;;1.83;1.10;;;;;;;;;;5029864;28;20191;-78
2023/09/01 14:32:07;;;;;;;2.20;0.90;;;;;;;;;;5030276;28;20186;-78
2023/09/01 14:34:33;;;;;;;2.17;1.10;;;;;;;;;;5029726;28;20735;-78
2023/09/01 14:36:59;;;;;;;1.80;1.00;;;;;;;;;;5029224;28;20710;-78
2023/09/01 14:39:25;;;;;;;3.93;1.23;;;;;;;;;;5028284;28;20202;-78
2023/09/01 14:41:52;;;;;;;1.47;1.00;;;;;;;;;;5029357;28;20188;-79
2023/09/01 14:44:19;;;;;;;1.80;1.10;;;;;;;;;;5029396;28;20290;-79